Limerick, Pennsylvania
Current Conditions -  °F | °C
As of 9:54 PM on Friday 24 Oct 2014 (Local Time) from KPTW Reporting Station
Clear Clear  
Wind Chill: 54°   Ceiling: Unl
Heat Index: 54°   Visibility: 10mi
Dew Point: 35°   Wind: 3mph
Humidity: 49%   Direction: 300°WNW
Pressure: 29.89"   Gusts: NA
Location:  40.2034°N, 75.5319°W
Report Text: KPTW 250154Z AUTO 30003KT 10SM CLR 12/02 A2989 RMK AO2 SLP118 T01220017
Loading
Personal Weather Stations






























Interactive Weather Map
Tropical Storm Tracking
New forecast layout! Learn more

10-Day Weather Forecast

Advertisements
Track Severe Weather on mobile